Time;durP1;ratioP1;P1;durP2;ratioP2;P2;SDS_P1;SDS_P2;PMS_P1;PMS_P2;Temp;Humidity;BMP_temperature;BMP_pressure;BME280_temperature;BME280_humidity;BME280_pressure;Samples;Min_cycle;Max_cycle;Signal;HPM_P1;HPM_P2
2022/11/06 00:01:36;;;;;;;4.68;1.65;;;;;;;11.42;48.78;100792.63;4999150;28;20065;-81
2022/11/06 00:04:21;;;;;;;4.38;1.77;;;;;;;11.47;48.59;100789.75;4997468;28;20061;-80
2022/11/06 00:07:06;;;;;;;5.82;2.33;;;;;;;11.52;48.32;100792.31;4997954;28;20046;-82
2022/11/06 00:09:51;;;;;;;6.30;2.22;;;;;;;11.45;48.50;100786.53;4997660;28;20061;-81
2022/11/06 00:12:35;;;;;;;3.72;2.13;;;;;;;11.44;49.32;100791.16;4999250;28;20053;-81
2022/11/06 00:15:20;;;;;;;4.38;2.90;;;;;;;11.46;51.36;100796.31;4997668;28;20437;-81
2022/11/06 00:18:04;;;;;;;3.80;2.38;;;;;;;11.42;52.11;100804.31;5001297;28;20065;-81
2022/11/06 00:20:49;;;;;;;1.85;1.40;;;;;;;11.19;51.70;100802.81;5002604;28;20049;-81
2022/11/06 00:23:35;;;;;;;3.20;2.17;;;;;;;11.26;51.31;100810.53;4997487;28;20045;-81
2022/11/06 00:26:22;;;;;;;5.00;2.90;;;;;;;11.36;51.72;100812.94;4999613;28;20101;-81
2022/11/06 00:29:06;;;;;;;5.45;2.75;;;;;;;11.33;52.33;100817.09;5018741;28;20057;-82
2022/11/06 00:31:51;;;;;;;;;;;;;;;11.19;52.65;100827.31;5022259;28;20056;-81
2022/11/06 00:34:36;;;;;;;3.85;2.28;;;;;;;11.26;52.18;100821.41;5035780;28;19921;-80
2022/11/06 00:37:21;;;;;;;3.83;2.22;;;;;;;11.24;52.50;100824.44;5019021;28;20161;-81
2022/11/06 00:40:06;;;;;;;;;;;;;;;11.25;53.44;100838.88;5017935;28;20048;-80
2022/11/06 00:42:53;;;;;;;6.15;2.42;;;;;;;11.21;53.58;100841.44;5037822;28;19914;-82
2022/11/06 00:45:38;;;;;;;5.15;3.00;;;;;;;10.89;53.77;100842.59;5033908;28;20105;-82
2022/11/06 00:48:22;;;;;;;5.50;2.70;;;;;;;10.89;53.70;100844.50;5029448;28;20057;-82
2022/11/06 00:51:09;;;;;;;3.90;2.33;;;;;;;11.01;53.47;100840.09;5028110;28;20532;-82
2022/11/06 00:54:00;;;;;;;4.38;2.80;;;;;;;11.06;53.32;100850.81;5027800;28;20057;-82
2022/11/06 00:56:45;;;;;;;7.07;3.60;;;;;;;10.94;53.69;100855.25;5026928;28;20523;-82
2022/11/06 00:59:29;;;;;;;3.80;2.78;;;;;;;10.82;54.44;100860.50;5026062;28;20086;-83
2022/11/06 01:02:18;;;;;;;3.55;2.08;;;;;;;10.92;53.71;100866.44;5031821;28;20516;-82
2022/11/06 01:05:03;;;;;;;5.88;2.30;;;;;;;10.91;53.52;100866.78;5027359;28;20057;-82
2022/11/06 01:07:48;;;;;;;4.68;2.42;;;;;;;10.79;53.89;100871.97;5024620;28;20432;-82
2022/11/06 01:10:33;;;;;;;4.03;2.70;;;;;;;10.68;53.43;100864.09;5027766;28;20061;-83
2022/11/06 01:13:17;;;;;;;5.68;2.90;;;;;;;10.52;53.40;100868.31;5029136;28;20049;-82
2022/11/06 01:16:05;;;;;;;6.63;2.53;;;;;;;10.47;54.11;100867.63;5022622;28;20421;-82
2022/11/06 01:18:51;;;;;;;4.97;2.92;;;;;;;10.52;54.05;100862.06;5025615;28;20049;-82
2022/11/06 01:21:38;;;;;;;4.85;2.88;;;;;;;10.36;54.63;100858.16;5022590;28;20053;-81
2022/11/06 01:24:26;;;;;;;5.57;2.47;;;;;;;10.51;54.89;100860.50;5014200;28;20057;-82
2022/11/06 01:27:11;;;;;;;5.35;2.45;;;;;;;10.53;54.18;100852.81;5022238;28;20515;-80
2022/11/06 01:29:56;;;;;;;3.22;2.03;;;;;;;10.41;54.62;100849.88;5020457;28;20515;-81
2022/11/06 01:32:40;;;;;;;3.83;2.10;;;;;;;10.14;54.81;100846.13;5025232;28;20053;-80
2022/11/06 01:35:25;;;;;;;3.25;2.03;;;;;;;10.02;54.20;100839.63;5023901;28;20068;-82
2022/11/06 01:38:10;;;;;;;3.03;1.90;;;;;;;9.85;55.29;100848.47;5021458;28;20052;-81
2022/11/06 01:40:55;;;;;;;3.33;1.77;;;;;;;10.08;55.12;100836.50;5019579;28;20045;-82
2022/11/06 01:43:55;;;;;;;3.50;2.38;;;;;;;10.21;55.00;100838.38;5024251;28;20057;-82
2022/11/06 01:46:40;;;;;;;7.28;2.97;;;;;;;10.10;54.86;100836.19;5018932;28;20049;-82
2022/11/06 01:49:26;;;;;;;8.52;3.08;;;;;;;9.87;56.06;100827.22;5017897;28;20417;-81
2022/11/06 01:52:13;;;;;;;5.05;2.67;;;;;;;9.89;55.47;100827.72;5018381;28;20547;-81
2022/11/06 01:55:13;;;;;;;4.68;2.28;;;;;;;9.78;56.11;100838.03;5027435;28;20520;-81
2022/11/06 01:58:00;;;;;;;5.72;2.72;;;;;;;9.76;56.12;100831.28;5016437;28;20052;-82
2022/11/06 02:00:46;;;;;;;6.30;2.97;;;;;;;9.73;56.25;100830.00;5023049;28;20061;-81
2022/11/06 02:03:31;;;;;;;14.48;3.13;;;;;;;9.74;56.28;100825.38;5017725;28;20053;-82
2022/11/06 02:06:16;;;;;;;3.97;2.17;;;;;;;9.77;56.11;100811.97;5018011;28;20052;-80
2022/11/06 02:09:02;;;;;;;6.07;2.65;;;;;;;9.91;55.55;100820.06;5019114;28;20048;-82
2022/11/06 02:11:57;;;;;;;6.80;2.53;;;;;;;9.85;56.08;100810.44;5017486;28;20052;-81
2022/11/06 02:14:54;;;;;;;3.25;1.83;;;;;;;9.76;56.26;100804.13;5000895;28;20049;-81
2022/11/06 02:18:01;;;;;;;9.10;2.90;;;;;;;9.82;56.67;100813.75;4998120;28;20053;-81
2022/11/06 02:21:24;;;;;;;3.63;2.13;;;;;;;9.90;55.84;100821.19;4996075;28;20049;-81
2022/11/06 02:24:27;;;;;;;5.57;2.45;;;;;;;9.85;56.56;100838.38;5005649;28;20049;-81
2022/11/06 02:27:17;;;;;;;3.72;2.28;;;;;;;9.73;56.08;100837.34;5001640;28;20057;-80
2022/11/06 02:30:07;;;;;;;3.67;2.28;;;;;;;9.83;55.78;100840.63;5004758;28;20057;-80
2022/11/06 02:33:00;;;;;;;3.22;1.95;;;;;;;9.78;55.98;100846.16;5000046;28;20061;-81
2022/11/06 02:35:51;;;;;;;6.82;2.50;;;;;;;9.82;56.06;100846.34;5012281;28;20049;-80
2022/11/06 02:38:42;;;;;;;3.45;1.77;;;;;;;9.78;55.67;100843.47;5014599;28;20409;-81
2022/11/06 02:41:34;;;;;;;4.38;2.40;;;;;;;9.87;55.60;100840.81;5012992;28;20053;-80
2022/11/06 02:44:23;;;;;;;4.75;2.47;;;;;;;9.92;55.31;100842.59;5001997;28;20536;-80
2022/11/06 02:47:11;;;;;;;4.43;2.50;;;;;;;9.87;55.24;100841.59;5015597;28;20065;-80
2022/11/06 02:50:07;;;;;;;3.47;2.30;;;;;;;9.88;55.20;100847.84;4999651;28;20508;-81
2022/11/06 02:52:54;;;;;;;;;;;;;;;9.81;55.26;100855.59;5013328;28;20053;-81
2022/11/06 02:55:47;;;;;;;1.95;1.60;;;;;;;9.81;56.48;100847.47;5014315;28;20368;-81
2022/11/06 02:58:50;;;;;;;2.22;1.42;;;;;;;10.01;55.79;100851.59;5013508;28;20049;-81
2022/11/06 03:01:41;;;;;;;3.00;1.52;;;;;;;10.02;54.75;100845.88;5010932;28;20045;-81
2022/11/06 03:04:52;;;;;;;2.50;1.60;;;;;;;9.93;55.36;100849.63;5006839;28;20053;-81
2022/11/06 03:07:41;;;;;;;3.75;1.77;;;;;;;9.76;55.25;100836.72;5013477;28;20041;-80
2022/11/06 03:10:32;;;;;;;8.68;2.17;;;;;;;9.82;55.38;100843.63;5013302;28;20057;-80
2022/11/06 03:13:34;;;;;;;3.13;1.90;;;;;;;9.93;55.20;100855.06;5016124;28;20041;-82
2022/11/06 03:16:27;;;;;;;6.80;2.00;;;;;;;9.94;55.43;100846.63;5012181;28;20076;-80
2022/11/06 03:19:28;;;;;;;7.95;1.70;;;;;;;9.90;55.44;100842.13;5012896;28;20045;-81
2022/11/06 03:22:31;;;;;;;4.20;1.67;;;;;;;9.95;56.00;100845.53;5009028;28;20425;-81
2022/11/06 03:25:15;;;;;;;7.47;2.38;;;;;;;10.03;55.49;100844.78;5056337;22;20040;-78
2022/11/06 03:28:06;;;;;;;1.67;0.98;;;;;;;10.14;55.38;100845.34;5030200;28;20060;-78
2022/11/06 03:30:58;;;;;;;8.13;2.08;;;;;;;10.07;55.56;100851.19;5015629;28;20068;-78
2022/11/06 03:33:51;;;;;;;2.70;1.60;;;;;;;9.61;57.63;100853.34;5032859;28;20048;-78
2022/11/06 03:36:41;;;;;;;5.13;2.08;;;;;;;9.64;57.40;100859.00;5028053;28;20064;-78
2022/11/06 03:39:32;;;;;;;4.95;1.73;;;;;;;9.50;58.73;100865.56;5033265;28;20045;-78
2022/11/06 03:42:24;;;;;;;5.80;2.25;;;;;;;9.67;57.14;100854.84;5032218;28;20040;-79
2022/11/06 03:45:18;;;;;;;3.63;1.67;;;;;;;9.84;56.70;100855.81;5033096;28;20049;-78
2022/11/06 03:48:18;;;;;;;3.63;1.52;;;;;;;9.87;55.22;100867.97;5033478;28;20048;-79
2022/11/06 03:51:11;;;;;;;7.22;1.85;;;;;;;9.77;55.22;100865.47;5036232;28;20056;-78
2022/11/06 03:54:05;;;;;;;3.42;1.70;;;;;;;9.67;55.04;100865.69;5032828;28;20052;-78
2022/11/06 03:56:59;;;;;;;2.35;1.35;;;;;;;9.58;55.26;100870.25;5033406;28;20057;-77
2022/11/06 03:59:50;;;;;;;7.00;1.45;;;;;;;9.51;55.36;100873.38;5035057;28;20049;-78
2022/11/06 04:02:39;;;;;;;2.90;1.70;;;;;;;9.61;54.81;100869.63;5032155;28;20056;-78
2022/11/06 04:05:24;;;;;;;3.60;1.75;;;;;;;9.60;54.61;100885.13;5033738;28;20049;-78
2022/11/06 04:14:26;;;;;;;3.63;1.55;;;;;;;9.54;54.48;100880.13;5039754;28;20046;-79
2022/11/06 04:17:13;;;;;;;6.43;1.42;;;;;;;9.52;54.37;100885.03;5038728;28;20052;-79
2022/11/06 04:20:04;;;;;;;2.33;1.30;;;;;;;9.49;54.94;100883.75;5035530;28;20053;-78
2022/11/06 04:23:07;;;;;;;2.60;1.45;;;;;;;9.48;54.81;100882.13;5036486;28;20069;-79
2022/11/06 04:29:07;;;;;;;4.97;1.38;;;;;;;9.54;54.39;100891.78;5037906;28;20044;-79
2022/11/06 04:32:06;;;;;;;2.53;1.65;;;;;;;9.48;54.25;100892.19;5037950;28;20048;-79
2022/11/06 04:35:03;;;;;;;4.15;1.65;;;;;;;9.55;53.80;100895.31;5038000;28;20053;-79
2022/11/06 04:38:00;;;;;;;3.22;1.35;;;;;;;9.55;53.94;100898.03;5037860;28;20048;-79
2022/11/06 04:40:54;;;;;;;2.25;1.15;;;;;;;9.60;53.43;100901.41;5038591;28;20045;-79
2022/11/06 04:43:48;;;;;;;2.47;1.47;;;;;;;9.56;53.71;100894.97;5037984;28;20412;-79
2022/11/06 04:46:55;;;;;;;1.85;1.30;;;;;;;9.58;53.88;100903.63;5036589;28;20057;-79
2022/11/06 04:49:43;;;;;;;2.75;1.17;;;;;;;9.56;53.62;100910.47;5043585;28;20056;-79
2022/11/06 04:52:28;;;;;;;2.28;1.13;;;;;;;9.56;54.66;100903.13;5042416;28;20044;-79
2022/11/06 04:55:12;;;;;;;2.80;1.13;;;;;;;9.47;54.25;100915.81;5061303;28;20048;-78
2022/11/06 04:57:57;;;;;;;1.40;0.85;;;;;;;9.47;53.51;100912.28;5041775;28;20060;-79
2022/11/06 05:00:48;;;;;;;1.27;0.98;;;;;;;9.50;53.28;100911.69;5041769;28;20230;-79
2022/11/06 05:03:33;;;;;;;1.90;1.00;;;;;;;9.45;53.23;100909.88;5045202;28;20052;-79
2022/11/06 05:06:18;;;;;;;4.53;1.95;;;;;;;9.53;53.27;100903.75;5041238;28;20117;-78
2022/11/06 05:09:02;;;;;;;3.55;0.98;;;;;;;9.55;53.41;100906.94;5040673;28;20041;-79
2022/11/06 05:11:47;;;;;;;1.92;0.93;;;;;;;9.57;52.58;100907.44;5040850;28;20367;-79
2022/11/06 05:14:32;;;;;;;5.43;1.60;;;;;;;9.59;53.44;100907.16;5034909;28;20053;-78
2022/11/06 05:17:17;;;;;;;1.70;1.10;;;;;;;9.56;53.88;100905.03;5039816;28;20049;-79
2022/11/06 05:20:03;;;;;;;1.40;1.05;;;;;;;9.52;54.38;100904.03;5039563;28;20175;-79
2022/11/06 05:22:59;;;;;;;1.92;1.10;;;;;;;9.49;54.64;100893.81;5036680;28;20052;-79
2022/11/06 05:25:44;;;;;;;1.88;1.30;;;;;;;9.28;55.21;100893.41;5030702;28;20041;-79
2022/11/06 05:28:29;;;;;;;7.63;1.40;;;;;;;9.23;55.89;100902.47;5033794;28;20044;-78
2022/11/06 05:31:14;;;;;;;2.08;1.00;;;;;;;9.23;55.86;100902.47;5040309;28;20065;-79
2022/11/06 05:33:58;;;;;;;1.27;0.75;;;;;;;9.22;55.77;100900.03;5039416;28;20520;-79
2022/11/06 05:36:43;;;;;;;2.17;1.65;;;;;;;9.14;55.34;100909.69;5039727;28;20060;-79
2022/11/06 05:39:28;;;;;;;2.25;1.08;;;;;;;9.06;55.41;100907.66;5036958;28;20052;-79
2022/11/06 05:42:12;;;;;;;1.42;0.95;;;;;;;9.11;54.81;100909.47;5030514;28;20040;-78
2022/11/06 05:44:57;;;;;;;2.28;1.20;;;;;;;9.18;55.98;100918.03;5045855;28;20432;-78
2022/11/06 05:47:41;;;;;;;1.45;1.00;;;;;;;9.11;55.86;100915.69;5030489;28;20052;-78
2022/11/06 05:50:26;;;;;;;1.42;0.60;;;;;;;8.91;56.15;100926.94;5032542;28;20049;-79
2022/11/06 05:53:11;;;;;;;1.70;0.70;;;;;;;8.99;55.26;100921.59;5034062;28;20060;-78
2022/11/06 05:55:56;;;;;;;0.82;0.40;;;;;;;8.91;55.46;100922.31;5034312;28;20064;-78
2022/11/06 05:58:40;;;;;;;0.80;0.52;;;;;;;8.84;55.07;100923.78;5036960;28;20516;-78
2022/11/06 06:01:24;;;;;;;1.17;0.60;;;;;;;9.02;54.93;100923.75;5028799;28;20052;-78
2022/11/06 06:04:09;;;;;;;1.42;0.75;;;;;;;9.07;54.04;100941.03;5033420;28;20049;-79
2022/11/06 06:06:54;;;;;;;2.28;0.90;;;;;;;9.05;54.00;100938.59;5034725;28;20060;-78
2022/11/06 06:09:38;;;;;;;2.00;1.27;;;;;;;8.96;54.36;100941.19;5032382;28;20053;-81
2022/11/06 06:12:25;;;;;;;10.38;2.13;;;;;;;9.01;54.39;100943.00;5036703;28;20291;-78
2022/11/06 06:15:10;;;;;;;21.35;8.57;;;;;;;9.00;54.31;100947.63;5035087;28;20040;-78
2022/11/06 06:17:56;;;;;;;3.75;2.08;;;;;;;8.92;55.04;100944.81;5047864;28;20052;-77
2022/11/06 06:20:41;;;;;;;2.63;1.27;;;;;;;8.78;55.30;100952.13;5036814;28;20048;-78
2022/11/06 06:23:26;;;;;;;2.65;1.13;;;;;;;8.84;55.45;100959.84;5031675;28;20068;-78
2022/11/06 06:26:11;;;;;;;1.00;0.63;;;;;;;9.08;55.54;100970.56;5032246;28;20044;-78
2022/11/06 06:28:56;;;;;;;1.65;1.08;;;;;;;9.10;54.25;100965.63;5033251;28;20056;-78
2022/11/06 06:31:41;;;;;;;;;;;;;;;8.94;55.70;100977.84;5036465;28;20049;-78
2022/11/06 06:34:25;;;;;;;2.20;1.20;;;;;;;9.07;56.15;100987.13;5032789;28;19912;-78
2022/11/06 06:37:10;;;;;;;1.85;1.00;;;;;;;9.24;55.87;100985.47;5032753;28;20048;-78
2022/11/06 06:39:54;;;;;;;3.20;0.87;;;;;;;9.31;55.53;101002.16;5032841;28;20056;-77
2022/11/06 06:42:39;;;;;;;2.00;0.70;;;;;;;9.35;55.49;101003.16;5033615;28;20651;-78
2022/11/06 06:45:25;;;;;;;1.80;1.03;;;;;;;9.34;55.87;101000.75;5032447;28;20052;-77
2022/11/06 06:48:09;;;;;;;2.63;1.02;;;;;;;9.35;55.81;101013.19;5035872;28;20052;-78
2022/11/06 06:50:59;;;;;;;1.80;0.60;;;;;;;9.38;55.82;101016.13;5032764;28;20049;-77
2022/11/06 06:53:43;;;;;;;1.98;1.13;;;;;;;9.29;56.42;101017.94;5032389;28;20044;-77
2022/11/06 06:56:28;;;;;;;1.50;0.80;;;;;;;9.20;57.53;101019.72;5032263;28;20520;-78
2022/11/06 06:59:13;;;;;;;24.27;10.63;;;;;;;9.39;57.00;101025.91;5032639;28;20052;-77
2022/11/06 07:01:57;;;;;;;5.55;1.48;;;;;;;9.50;57.32;101025.72;5012493;28;20065;-78
2022/11/06 07:04:42;;;;;;;5.47;1.33;;;;;;;9.53;57.19;101030.53;5033377;28;20049;-78
2022/11/06 07:07:27;;;;;;;2.08;0.82;;;;;;;9.56;57.69;101033.44;5032268;28;20056;-78
2022/11/06 07:10:11;;;;;;;1.45;0.77;;;;;;;9.54;57.85;101032.94;5031964;28;20048;-78
2022/11/06 07:13:03;;;;;;;2.95;0.60;;;;;;;9.42;58.50;101036.16;5032051;28;20056;-78
2022/11/06 07:15:47;;;;;;;2.22;1.20;;;;;;;9.43;58.52;101035.03;5030728;28;20044;-78
2022/11/06 07:18:34;;;;;;;1.90;0.70;;;;;;;9.53;58.01;101030.53;5032044;28;20052;-78
2022/11/06 07:21:18;;;;;;;1.50;0.98;;;;;;;9.62;58.19;101034.16;5031882;28;20044;-78
2022/11/06 07:24:04;;;;;;;1.00;0.63;;;;;;;9.73;58.12;101033.66;5032060;28;20056;-77
2022/11/06 07:26:48;;;;;;;3.15;0.85;;;;;;;9.86;57.31;101037.47;5033223;28;20056;-77
2022/11/06 07:29:33;;;;;;;1.23;0.60;;;;;;;9.87;57.91;101042.59;5032174;28;20511;-78
2022/11/06 07:32:18;;;;;;;1.80;1.05;;;;;;;9.98;57.86;101045.91;5031360;28;20064;-78
2022/11/06 07:35:04;;;;;;;1.45;1.05;;;;;;;10.04;57.22;101033.03;5028932;28;20448;-78
2022/11/06 07:37:48;;;;;;;1.65;1.15;;;;;;;10.08;57.23;101043.00;5028740;28;20048;-77
2022/11/06 07:40:33;;;;;;;4.53;1.20;;;;;;;10.12;57.18;101041.28;5032766;28;20443;-78
2022/11/06 07:43:18;;;;;;;4.72;1.00;;;;;;;10.16;57.35;101042.31;5031310;28;20053;-78
2022/11/06 07:46:05;;;;;;;4.13;1.50;;;;;;;10.21;56.96;101041.38;5032720;28;20052;-78
2022/11/06 07:48:50;;;;;;;3.33;1.00;;;;;;;10.25;56.35;101048.66;5030727;28;20045;-78
2022/11/06 07:51:35;;;;;;;1.42;0.73;;;;;;;10.29;58.04;101051.56;5032659;28;20056;-78
2022/11/06 07:54:20;;;;;;;1.45;0.70;;;;;;;10.34;59.65;101054.16;5036762;28;20044;-78
2022/11/06 07:57:05;;;;;;;2.08;1.27;;;;;;;10.39;60.30;101047.81;5029506;28;20057;-79
2022/11/06 07:59:50;;;;;;;5.03;2.83;;;;;;;10.44;60.25;101053.13;5031290;28;20041;-77
2022/11/06 08:02:35;;;;;;;3.33;2.13;;;;;;;10.48;58.94;101046.78;5030565;28;20547;-79
2022/11/06 08:05:19;;;;;;;7.13;1.92;;;;;;;10.58;58.65;101046.53;5024807;28;20061;-78
2022/11/06 08:08:04;;;;;;;3.55;1.73;;;;;;;10.63;58.25;101053.78;5029111;28;20064;-78
2022/11/06 08:10:50;;;;;;;1.65;1.30;;;;;;;10.64;58.70;101050.75;5031345;28;20052;-77
2022/11/06 08:13:38;;;;;;;5.05;1.48;;;;;;;10.69;57.52;101055.28;5032985;28;20068;-78
2022/11/06 08:16:23;;;;;;;3.10;1.50;;;;;;;10.71;60.06;101050.34;5031190;28;20048;-77
2022/11/06 08:19:08;;;;;;;2.55;1.13;;;;;;;10.77;60.61;101042.88;5024737;28;20068;-78
2022/11/06 08:21:52;;;;;;;5.97;1.40;;;;;;;10.82;60.06;101040.81;5030318;28;20044;-78
2022/11/06 08:24:37;;;;;;;3.08;1.30;;;;;;;10.88;60.15;101050.47;5034389;28;20045;-78
2022/11/06 08:27:21;;;;;;;6.70;1.43;;;;;;;10.91;59.14;101038.97;5033756;28;20559;-77
2022/11/06 08:30:06;;;;;;;3.83;1.63;;;;;;;10.99;57.77;101051.03;5029486;28;20299;-77
2022/11/06 08:32:51;;;;;;;2.97;1.52;;;;;;;11.04;57.12;101043.53;5035635;28;20287;-77
2022/11/06 08:35:37;;;;;;;4.70;2.30;;;;;;;11.11;57.40;101043.09;5029669;28;20049;-78
2022/11/06 08:38:21;;;;;;;3.42;1.52;;;;;;;11.17;58.10;101046.50;5026056;28;20052;-77
2022/11/06 08:41:11;;;;;;;6.97;2.45;;;;;;;11.27;59.17;101035.38;5027539;28;20129;-78
2022/11/06 08:43:55;;;;;;;2.97;1.92;;;;;;;11.35;59.17;101040.03;5027159;28;20048;-78
2022/11/06 08:46:40;;;;;;;5.95;1.50;;;;;;;11.41;59.71;101036.06;5030520;28;20056;-77
2022/11/06 08:49:25;;;;;;;5.82;2.13;;;;;;;11.48;59.15;101036.41;5032687;28;20045;-78
2022/11/06 08:52:10;;;;;;;4.68;2.17;;;;;;;11.53;57.78;101037.09;5015682;28;20060;-77
2022/11/06 08:54:54;;;;;;;3.75;1.92;;;;;;;11.62;57.80;101037.13;5019065;28;20056;-77
2022/11/06 08:57:39;;;;;;;5.78;2.40;;;;;;;11.66;56.96;101038.13;5039524;28;20044;-78
2022/11/06 09:00:24;;;;;;;4.40;1.50;;;;;;;11.72;55.83;101033.34;5034924;28;20523;-77
2022/11/06 09:03:12;;;;;;;6.78;2.65;;;;;;;11.83;56.19;101038.22;5035545;28;20052;-77
2022/11/06 09:05:57;;;;;;;18.67;3.75;;;;;;;11.88;56.47;101032.63;5034438;28;20044;-77
2022/11/06 09:08:42;;;;;;;4.35;2.35;;;;;;;11.95;56.78;101037.59;5034865;28;20041;-77
2022/11/06 09:11:26;;;;;;;3.67;1.52;;;;;;;12.02;55.92;101034.41;5035312;28;20429;-77
2022/11/06 09:14:11;;;;;;;4.63;1.50;;;;;;;12.08;57.47;101031.22;5034959;28;20048;-78
2022/11/06 09:16:55;;;;;;;4.75;2.20;;;;;;;12.16;56.22;101040.53;5034858;28;20049;-77
2022/11/06 09:19:39;;;;;;;3.60;1.58;;;;;;;12.19;53.23;101046.16;5034662;28;20052;-77
2022/11/06 09:22:24;;;;;;;2.53;1.23;;;;;;;12.25;51.50;101049.53;5047365;28;20056;-78
2022/11/06 09:25:09;;;;;;;;;;;;;;;12.33;48.83;101043.31;5035602;28;20044;-77
2022/11/06 09:27:54;;;;;;;5.30;1.83;;;;;;;12.37;47.98;101041.53;5065590;23;19921;-81
2022/11/06 09:30:39;;;;;;;2.75;1.13;;;;;;;12.45;47.69;101038.00;5045697;28;20510;-83
2022/11/06 09:33:24;;;;;;;;;;;;;;;12.55;47.84;101040.41;5056801;28;20067;-81
2022/11/06 09:36:08;;;;;;;3.03;1.20;;;;;;;12.56;46.64;101044.75;5052968;28;19921;-82
2022/11/06 09:38:53;;;;;;;1.58;1.00;;;;;;;12.63;46.94;101038.84;5066087;28;20072;-81
2022/11/06 09:41:44;;;;;;;1.45;0.80;;;;;;;12.67;44.49;101037.88;5059475;28;20095;-81
2022/11/06 09:44:45;;;;;;;5.88;1.33;;;;;;;12.79;45.41;101029.84;5060055;28;20056;-81
2022/11/06 09:47:36;;;;;;;2.55;0.95;;;;;;;12.88;45.90;101038.03;5055186;28;20048;-79
2022/11/06 09:50:28;;;;;;;2.00;1.02;;;;;;;12.92;45.96;101027.25;5070221;28;20063;-81
2022/11/06 09:53:18;;;;;;;1.20;0.70;;;;;;;12.98;45.34;101036.88;5059425;28;20044;-81
2022/11/06 09:56:04;;;;;;;1.58;0.98;;;;;;;13.00;45.59;101032.72;5057935;28;20047;-81
2022/11/06 09:58:50;;;;;;;3.85;0.90;;;;;;;13.07;45.39;101027.56;5053929;28;20048;-79
2022/11/06 10:01:57;;;;;;;2.03;1.10;;;;;;;13.12;44.08;101030.16;5053800;28;20173;-82
2022/11/06 10:04:57;;;;;;;1.75;1.13;;;;;;;13.23;44.98;101025.16;5059468;28;20044;-83
2022/11/06 10:07:43;;;;;;;2.92;1.20;;;;;;;13.27;44.64;101023.34;5059158;28;20056;-83
2022/11/06 10:10:45;;;;;;;2.33;0.77;;;;;;;13.35;45.22;101021.75;5061889;28;20108;-83
2022/11/06 10:13:53;;;;;;;2.53;0.80;;;;;;;13.41;44.80;101032.16;5063611;28;20047;-84
2022/11/06 10:16:58;;;;;;;5.82;1.15;;;;;;;13.49;44.62;101023.16;5061470;28;20048;-83
2022/11/06 10:20:08;;;;;;;1.33;0.77;;;;;;;13.53;44.14;101021.34;5057482;28;20052;-82
2022/11/06 10:23:04;;;;;;;1.95;0.77;;;;;;;13.60;44.19;101018.13;5056594;28;20412;-82
2022/11/06 10:26:06;;;;;;;2.03;1.08;;;;;;;13.74;44.04;101015.16;5057886;28;20044;-82
2022/11/06 10:29:09;;;;;;;1.75;0.90;;;;;;;13.81;44.40;101012.72;5057882;28;20052;-81
2022/11/06 10:32:11;;;;;;;2.05;0.93;;;;;;;13.85;44.70;101010.94;5058828;28;20048;-85
2022/11/06 10:35:02;;;;;;;3.58;0.95;;;;;;;13.89;45.23;101014.59;5056662;28;20044;-84
2022/11/06 10:37:58;;;;;;;4.93;0.88;;;;;;;13.93;47.47;101001.88;5044165;28;20044;-83
2022/11/06 10:40:47;;;;;;;1.55;0.70;;;;;;;13.94;46.98;100998.00;5055401;28;20052;-83
2022/11/06 10:43:39;;;;;;;4.88;1.55;;;;;;;14.04;47.39;100994.88;5054173;28;20523;-81
2022/11/06 10:46:42;;;;;;;1.85;1.10;;;;;;;14.13;47.37;101001.09;5062306;28;20462;-83
2022/11/06 10:49:46;;;;;;;3.33;1.48;;;;;;;14.14;44.43;100991.75;5048195;28;20554;-80
2022/11/06 10:52:52;;;;;;;2.65;1.17;;;;;;;14.18;45.17;100992.69;5049343;28;20044;-82
2022/11/06 10:55:52;;;;;;;;;;;;;;;14.20;43.96;100987.72;5063202;28;20048;-80
2022/11/06 10:58:36;;;;;;;6.68;1.30;;;;;;;14.16;44.81;100989.50;5053814;28;19917;-81
2022/11/06 11:01:21;;;;;;;5.18;1.05;;;;;;;14.25;45.02;100987.50;5052637;28;20048;-81
2022/11/06 11:04:06;;;;;;;5.50;1.40;;;;;;;14.31;44.75;100983.44;5053302;28;20459;-81
2022/11/06 11:06:51;;;;;;;1.83;1.10;;;;;;;14.30;43.55;100984.56;5057142;28;20044;-83
2022/11/06 11:09:35;;;;;;;3.40;0.80;;;;;;;14.33;43.97;100975.69;5059647;28;20052;-83
2022/11/06 11:12:27;;;;;;;4.00;1.35;;;;;;;14.37;43.34;100965.72;5053465;28;20044;-81
2022/11/06 11:15:14;;;;;;;5.40;1.20;;;;;;;14.45;44.42;100973.06;5071592;28;20052;-81
2022/11/06 11:18:08;;;;;;;2.38;1.15;;;;;;;14.42;43.63;100968.25;5053658;28;20044;-83
2022/11/06 11:21:04;;;;;;;1.58;1.27;;;;;;;14.52;45.64;100967.84;5053820;28;20056;-80
2022/11/06 11:24:08;;;;;;;2.30;1.27;;;;;;;14.63;44.96;100956.50;5054000;28;20507;-83
2022/11/06 11:27:01;;;;;;;1.77;1.20;;;;;;;14.64;44.84;100958.06;5053681;28;20074;-80
2022/11/06 11:29:49;;;;;;;4.43;1.30;;;;;;;14.69;45.32;100964.13;5056800;28;20040;-82
2022/11/06 11:32:34;;;;;;;2.17;0.90;;;;;;;14.75;44.39;100957.31;5051424;28;20068;-82
2022/11/06 11:35:24;;;;;;;2.03;1.20;;;;;;;14.80;44.08;100953.56;5053199;28;20048;-83
2022/11/06 11:38:15;;;;;;;2.50;0.90;;;;;;;14.84;43.97;100959.97;5052887;28;20047;-81
2022/11/06 11:41:13;;;;;;;4.35;1.13;;;;;;;14.94;43.75;100954.88;5052375;28;20047;-82
2022/11/06 11:44:01;;;;;;;4.22;1.60;;;;;;;14.96;42.83;100940.84;5050684;28;20063;-82
2022/11/06 11:46:50;;;;;;;2.80;1.35;;;;;;;15.02;43.36;100939.50;5053541;28;20040;-83
2022/11/06 11:49:35;;;;;;;2.42;1.00;;;;;;;15.06;43.27;100948.63;5046913;28;20040;-81
2022/11/06 11:52:21;;;;;;;1.95;1.08;;;;;;;15.09;43.05;100942.47;5051966;28;20048;-81
2022/11/06 11:55:17;;;;;;;1.65;1.10;;;;;;;15.15;42.74;100943.84;5053546;28;20067;-81
2022/11/06 11:58:01;;;;;;;1.40;0.73;;;;;;;15.17;42.94;100930.63;5040730;28;20062;-80
2022/11/06 12:00:52;;;;;;;;;;;;;;;15.19;42.01;100936.53;5049492;28;20056;-81
2022/11/06 12:03:45;;;;;;;1.88;1.15;;;;;;;15.22;41.08;100932.34;5051532;28;19912;-82
2022/11/06 12:06:30;;;;;;;1.55;0.90;;;;;;;15.29;40.13;100929.81;5049123;28;20051;-80
2022/11/06 12:09:15;;;;;;;;;;;;;;;15.37;40.54;100932.47;5046762;28;20036;-79
2022/11/06 12:12:00;;;;;;;3.13;1.60;;;;;;;15.37;40.40;100929.72;5064249;28;19913;-80
2022/11/06 12:14:45;;;;;;;2.47;1.45;;;;;;;15.45;40.35;100925.25;5047399;28;20048;-79
2022/11/06 12:17:32;;;;;;;;;;;;;;;15.56;41.77;100915.47;5054034;28;20055;-81
2022/11/06 12:20:23;;;;;;;2.60;1.48;;;;;;;15.52;41.08;100911.81;5067960;28;19940;-78
2022/11/06 12:23:15;;;;;;;3.58;1.60;;;;;;;15.60;39.59;100912.81;5053541;28;20040;-82
2022/11/06 12:26:33;;;;;;;4.00;1.80;;;;;;;15.67;39.65;100907.56;5062892;28;20040;-82
2022/11/06 12:29:38;;;;;;;3.40;1.42;;;;;;;15.70;39.68;100904.13;5051958;28;20056;-81
2022/11/06 12:32:32;;;;;;;6.88;1.95;;;;;;;15.72;38.98;100901.84;5047551;28;20685;-82
2022/11/06 12:35:30;;;;;;;2.53;1.40;;;;;;;15.78;41.28;100904.03;5042721;28;20158;-79
2022/11/06 12:38:32;;;;;;;3.15;1.60;;;;;;;15.82;40.71;100910.41;5052666;28;20044;-80
2022/11/06 12:41:26;;;;;;;2.70;1.42;;;;;;;15.88;40.15;100907.44;5057859;28;20056;-82
2022/11/06 12:44:13;;;;;;;3.78;1.80;;;;;;;15.90;40.12;100894.19;5054554;28;20048;-81
2022/11/06 12:47:20;;;;;;;2.88;1.60;;;;;;;15.98;40.69;100895.97;5054587;28;20522;-80
2022/11/06 12:50:23;;;;;;;2.53;1.58;;;;;;;16.01;40.05;100889.78;5051602;28;20044;-82
2022/11/06 12:53:29;;;;;;;11.73;2.20;;;;;;;16.01;38.33;100884.31;5052792;28;20048;-83
2022/11/06 12:57:02;;;;;;;4.57;2.00;;;;;;;16.07;37.28;100882.91;5052303;28;20039;-82
2022/11/06 13:00:12;;;;;;;4.78;1.88;;;;;;;16.15;39.50;100880.03;5088203;28;20056;-84
2022/11/06 13:02:57;;;;;;;3.75;1.80;;;;;;;16.15;39.18;100880.03;5055962;28;20424;-85
2022/11/06 13:06:04;;;;;;;2.92;1.80;;;;;;;16.22;39.41;100869.25;5053499;28;20056;-85
2022/11/06 13:09:08;;;;;;;7.20;2.50;;;;;;;17.20;37.77;100874.19;5053561;28;20049;-81
2022/11/06 13:12:04;;;;;;;10.35;1.77;;;;;;;18.00;45.05;100876.44;5059284;28;20051;-81
2022/11/06 13:15:10;;;;;;;4.75;1.88;;;;;;;17.75;46.56;100864.91;5057356;28;20044;-80
2022/11/06 13:18:12;;;;;;;7.05;1.60;;;;;;;17.65;46.23;100869.00;5055146;28;20059;-80
2022/11/06 13:21:19;;;;;;;8.38;2.35;;;;;;;17.54;46.54;100868.75;5075390;28;20044;-80
2022/11/06 13:24:13;;;;;;;12.07;2.75;;;;;;;17.57;45.02;100867.25;5046544;28;20041;-78
2022/11/06 13:27:16;;;;;;;3.17;1.85;;;;;;;17.49;43.74;100866.25;5059393;28;20413;-77